DAE8739 TNCM-SYCJ
Flight info
| Callsign | DAE8739 |
|---|---|
| Flight time | 1h 49m |
| Altitude | 35000 |
| Route | MODOR2 ZPATA UL329 KORTO UG449 LEPOD UA312 LOKIT A312 MEXEN |
| Aircraft | A306/H-SDE3FGHIRWY/LB1 |
Departure
| Time | 2026-04-20 23:24 |
|---|---|
| Airport | Princess Juliana International Airport (TNCM) |
Arrival
| Time | 2026-04-21 01:14 |
|---|---|
| Airport | Cheddi Jagan International Airport (SYCJ) |
| Time | Latitude | Longitude | Altitude | Speed | Heading |
|---|---|---|---|---|---|
| 2026-04-20 23:05 | 18.04227 | -63.11583 | 34 ft | 0 kts | 320° |
| 2026-04-20 23:16 | 18.04211 | -63.11568 | 43 ft | 4 kts | 312° |
| 2026-04-20 23:16 | 18.04195 | -63.11546 | 34 ft | 4 kts | 294° |
| 2026-04-20 23:17 | 18.04190 | -63.11521 | 34 ft | 4 kts | 250° |
| 2026-04-20 23:17 | 18.04193 | -63.11512 | 34 ft | 1 kts | 231° |
| 2026-04-20 23:20 | 18.04161 | -63.11551 | 34 ft | 16 kts | 229° |
| 2026-04-20 23:20 | 18.04077 | -63.11661 | 34 ft | 18 kts | 243° |
| 2026-04-20 23:21 | 18.04050 | -63.11777 | 33 ft | 16 kts | 261° |
| 2026-04-20 23:21 | 18.04044 | -63.11817 | 33 ft | 0 kts | 261° |
| 2026-04-20 23:22 | 18.04043 | -63.11824 | 34 ft | 5 kts | 261° |
| 2026-04-20 23:22 | 18.04034 | -63.11871 | 33 ft | 10 kts | 255° |
| 2026-04-20 23:22 | 18.04006 | -63.11935 | 34 ft | 8 kts | 229° |
| 2026-04-20 23:22 | 18.03973 | -63.11945 | 33 ft | 3 kts | 164° |
| 2026-04-20 23:23 | 18.03956 | -63.11921 | 33 ft | 5 kts | 114° |
| 2026-04-20 23:23 | 18.03956 | -63.11846 | 33 ft | 20 kts | 83° |
| 2026-04-20 23:23 | 18.04013 | -63.11454 | 34 ft | 90 kts | 81° |
| 2026-04-20 23:23 | 18.04140 | -63.10566 | 35 ft | 154 kts | 81° |
| 2026-04-20 23:24 | 18.04208 | -63.09308 | 455 ft | 187 kts | 99° |
| 2026-04-20 23:24 | 18.03422 | -63.08113 | 1116 ft | 218 kts | 142° |
| 2026-04-20 23:24 | 18.01951 | -63.07417 | 1746 ft | 250 kts | 157° |
| 2026-04-20 23:24 | 18.00155 | -63.07198 | 2387 ft | 264 kts | 175° |
| 2026-04-20 23:25 | 17.98334 | -63.07227 | 3327 ft | 261 kts | 178° |
| 2026-04-20 23:25 | 17.96513 | -63.07335 | 4164 ft | 263 kts | 179° |
| 2026-04-20 23:25 | 17.94666 | -63.07483 | 4927 ft | 269 kts | 181° |
| 2026-04-20 23:25 | 17.92788 | -63.07656 | 5708 ft | 273 kts | 181° |
| 2026-04-20 23:26 | 17.90880 | -63.07844 | 6490 ft | 277 kts | 182° |
| 2026-04-20 23:26 | 17.88942 | -63.08041 | 7228 ft | 282 kts | 182° |
| 2026-04-20 23:26 | 17.86970 | -63.08172 | 7968 ft | 286 kts | 172° |
| 2026-04-20 23:26 | 17.85118 | -63.07487 | 8667 ft | 285 kts | 144° |
| 2026-04-20 23:27 | 17.83504 | -63.06267 | 9424 ft | 288 kts | 140° |
| 2026-04-20 23:27 | 17.81858 | -63.05026 | 10141 ft | 295 kts | 142° |
| 2026-04-20 23:27 | 17.80104 | -63.03793 | 10488 ft | 313 kts | 144° |
| 2026-04-20 23:27 | 17.78206 | -63.02533 | 10745 ft | 331 kts | 146° |
| 2026-04-20 23:28 | 17.76189 | -63.01240 | 10993 ft | 348 kts | 147° |
| 2026-04-20 23:28 | 17.74099 | -62.99922 | 11249 ft | 363 kts | 147° |
| 2026-04-20 23:28 | 17.71888 | -62.98541 | 11471 ft | 377 kts | 146° |
| 2026-04-20 23:28 | 17.69597 | -62.97115 | 11736 ft | 388 kts | 148° |
| 2026-04-20 23:29 | 17.67254 | -62.95662 | 12087 ft | 396 kts | 148° |
| 2026-04-20 23:29 | 17.64866 | -62.94182 | 12446 ft | 402 kts | 147° |
| 2026-04-20 23:29 | 17.62442 | -62.92680 | 12882 ft | 407 kts | 147° |
| 2026-04-20 23:29 | 17.60002 | -62.91168 | 13450 ft | 408 kts | 148° |
| 2026-04-20 23:30 | 17.57557 | -62.89655 | 13934 ft | 411 kts | 148° |
| 2026-04-20 23:30 | 17.55070 | -62.88116 | 14232 ft | 418 kts | 148° |
| 2026-04-20 23:30 | 17.52577 | -62.86572 | 14800 ft | 416 kts | 149° |
| 2026-04-20 23:30 | 17.50077 | -62.85026 | 15193 ft | 420 kts | 149° |
| 2026-04-20 23:31 | 17.47510 | -62.83510 | 15479 ft | 427 kts | 153° |
| 2026-04-20 23:31 | 17.44801 | -62.82191 | 15944 ft | 429 kts | 157° |
| 2026-04-20 23:31 | 17.42035 | -62.80995 | 16390 ft | 430 kts | 159° |
| 2026-04-20 23:31 | 17.39227 | -62.79853 | 16807 ft | 434 kts | 159° |
| 2026-04-20 23:32 | 17.36402 | -62.78728 | 17236 ft | 436 kts | 160° |
| 2026-04-20 23:32 | 17.33559 | -62.77595 | 17710 ft | 437 kts | 160° |
| 2026-04-20 23:32 | 17.30706 | -62.76448 | 18038 ft | 442 kts | 159° |
| 2026-04-20 23:32 | 17.27830 | -62.75279 | 18377 ft | 445 kts | 160° |
| 2026-04-20 23:33 | 17.24942 | -62.74096 | 18689 ft | 447 kts | 159° |
| 2026-04-20 23:33 | 17.22040 | -62.72902 | 19023 ft | 449 kts | 159° |
| 2026-04-20 23:33 | 17.19126 | -62.71702 | 19323 ft | 451 kts | 159° |
| 2026-04-20 23:33 | 17.16196 | -62.70495 | 19609 ft | 454 kts | 160° |
| 2026-04-20 23:34 | 17.13248 | -62.69281 | 19893 ft | 456 kts | 160° |
| 2026-04-20 23:34 | 17.10286 | -62.68062 | 20150 ft | 459 kts | 160° |
| 2026-04-20 23:34 | 17.07346 | -62.66853 | 20426 ft | 461 kts | 160° |
| 2026-04-20 23:34 | 17.04354 | -62.65624 | 20693 ft | 463 kts | 160° |
| 2026-04-20 23:35 | 17.01341 | -62.64386 | 20958 ft | 466 kts | 160° |
| 2026-04-20 23:35 | 16.95282 | -62.61899 | 21465 ft | 470 kts | 160° |
| 2026-04-20 23:35 | 16.92230 | -62.60647 | 21723 ft | 472 kts | 160° |
| 2026-04-20 23:36 | 16.89161 | -62.59389 | 21968 ft | 475 kts | 160° |
| 2026-04-20 23:36 | 16.86081 | -62.58126 | 22211 ft | 477 kts | 160° |
| 2026-04-20 23:36 | 16.82982 | -62.56856 | 22444 ft | 479 kts | 160° |
| 2026-04-20 23:36 | 16.79869 | -62.55581 | 22680 ft | 481 kts | 160° |
| 2026-04-20 23:37 | 16.76740 | -62.54299 | 22889 ft | 484 kts | 160° |
| 2026-04-20 23:37 | 16.73601 | -62.53014 | 23111 ft | 486 kts | 161° |
| 2026-04-20 23:37 | 16.70447 | -62.51723 | 23375 ft | 487 kts | 161° |
| 2026-04-20 23:37 | 16.67290 | -62.50431 | 23625 ft | 489 kts | 161° |
| 2026-04-20 23:38 | 16.64118 | -62.49134 | 23812 ft | 490 kts | 161° |
| 2026-04-20 23:38 | 16.60935 | -62.47832 | 24008 ft | 492 kts | 161° |
| 2026-04-20 23:38 | 16.57744 | -62.46528 | 24203 ft | 493 kts | 161° |
| 2026-04-20 23:38 | 16.54547 | -62.45222 | 24413 ft | 494 kts | 161° |
| 2026-04-20 23:39 | 16.51344 | -62.43913 | 24591 ft | 495 kts | 161° |
| 2026-04-20 23:39 | 16.48136 | -62.42604 | 24789 ft | 496 kts | 161° |
| 2026-04-20 23:39 | 16.44915 | -62.41289 | 24970 ft | 498 kts | 161° |
| 2026-04-20 23:39 | 16.41685 | -62.39971 | 25122 ft | 500 kts | 161° |
| 2026-04-20 23:40 | 16.38444 | -62.38650 | 25298 ft | 501 kts | 161° |
| 2026-04-20 23:40 | 16.35235 | -62.37342 | 25469 ft | 501 kts | 161° |
| 2026-04-20 23:40 | 16.31986 | -62.36018 | 25651 ft | 502 kts | 161° |
| 2026-04-20 23:40 | 16.28729 | -62.34691 | 25806 ft | 504 kts | 161° |
| 2026-04-20 23:41 | 16.25459 | -62.33360 | 25989 ft | 505 kts | 161° |
| 2026-04-20 23:41 | 16.22183 | -62.32026 | 26150 ft | 506 kts | 161° |
| 2026-04-20 23:41 | 16.18902 | -62.30691 | 26308 ft | 507 kts | 161° |
| 2026-04-20 23:41 | 16.15616 | -62.29354 | 26473 ft | 508 kts | 161° |
| 2026-04-20 23:42 | 16.12321 | -62.28014 | 26626 ft | 509 kts | 161° |
| 2026-04-20 23:42 | 16.09022 | -62.26673 | 26780 ft | 510 kts | 161° |
| 2026-04-20 23:42 | 16.05761 | -62.25348 | 26935 ft | 511 kts | 161° |
| 2026-04-20 23:42 | 16.02449 | -62.24002 | 27091 ft | 511 kts | 161° |
| 2026-04-20 23:43 | 15.99133 | -62.22656 | 27230 ft | 513 kts | 161° |
| 2026-04-20 23:43 | 15.95823 | -62.21311 | 27607 ft | 507 kts | 162° |
| 2026-04-20 23:43 | 15.92551 | -62.19981 | 28018 ft | 503 kts | 162° |
| 2026-04-20 23:43 | 15.89300 | -62.18661 | 28234 ft | 502 kts | 162° |
| 2026-04-20 23:44 | 15.86043 | -62.17341 | 28436 ft | 502 kts | 162° |
| 2026-04-20 23:44 | 15.82834 | -62.16041 | 28657 ft | 502 kts | 162° |
| 2026-04-20 23:44 | 15.79586 | -62.14725 | 28869 ft | 501 kts | 163° |
| 2026-04-20 23:44 | 15.76345 | -62.13413 | 29165 ft | 499 kts | 163° |
| 2026-04-20 23:45 | 15.73120 | -62.12106 | 29443 ft | 497 kts | 163° |
| 2026-04-20 23:45 | 15.69905 | -62.10804 | 29698 ft | 496 kts | 163° |
| 2026-04-20 23:45 | 15.66690 | -62.09503 | 29945 ft | 495 kts | 163° |
| 2026-04-20 23:45 | 15.63482 | -62.08206 | 30194 ft | 494 kts | 163° |
| 2026-04-20 23:46 | 15.60291 | -62.06916 | 30422 ft | 492 kts | 163° |
| 2026-04-20 23:46 | 15.57148 | -62.05645 | 30682 ft | 490 kts | 164° |
| 2026-04-20 23:46 | 15.53983 | -62.04365 | 30958 ft | 487 kts | 164° |
| 2026-04-20 23:46 | 15.50835 | -62.03093 | 31244 ft | 484 kts | 164° |
| 2026-04-20 23:47 | 15.47702 | -62.01827 | 31525 ft | 482 kts | 165° |
| 2026-04-20 23:47 | 15.44589 | -62.00570 | 31831 ft | 478 kts | 166° |
| 2026-04-20 23:47 | 15.41509 | -61.99325 | 32239 ft | 472 kts | 166° |
| 2026-04-20 23:47 | 15.38460 | -61.98093 | 32536 ft | 470 kts | 166° |
| 2026-04-20 23:48 | 15.35420 | -61.96867 | 32784 ft | 468 kts | 166° |
| 2026-04-20 23:48 | 15.32426 | -61.95661 | 33018 ft | 467 kts | 166° |
| 2026-04-20 23:48 | 15.29401 | -61.94443 | 33263 ft | 466 kts | 167° |
| 2026-04-20 23:48 | 15.26388 | -61.93230 | 33502 ft | 464 kts | 167° |
| 2026-04-20 23:49 | 15.23381 | -61.92019 | 33738 ft | 463 kts | 167° |
| 2026-04-20 23:49 | 15.20388 | -61.90813 | 34048 ft | 460 kts | 167° |
| 2026-04-20 23:49 | 15.17420 | -61.89616 | 34280 ft | 458 kts | 167° |
| 2026-04-20 23:49 | 15.14447 | -61.88420 | 34402 ft | 458 kts | 167° |
| 2026-04-20 23:50 | 15.11472 | -61.87226 | 34519 ft | 459 kts | 167° |
| 2026-04-20 23:50 | 15.08492 | -61.86029 | 34653 ft | 459 kts | 167° |
| 2026-04-20 23:50 | 15.05553 | -61.84848 | 34813 ft | 459 kts | 167° |
| 2026-04-20 23:50 | 15.02577 | -61.83652 | 34964 ft | 459 kts | 167° |
| 2026-04-20 23:51 | 14.99599 | -61.82455 | 35011 ft | 459 kts | 167° |
| 2026-04-20 23:51 | 14.93652 | -61.80067 | 35020 ft | 459 kts | 167° |
| 2026-04-20 23:52 | 14.87703 | -61.77679 | 35020 ft | 459 kts | 167° |
| 2026-04-20 23:52 | 14.81753 | -61.75292 | 35016 ft | 459 kts | 167° |
| 2026-04-20 23:53 | 14.75838 | -61.72921 | 35012 ft | 460 kts | 167° |
| 2026-04-20 23:53 | 14.69873 | -61.70531 | 35009 ft | 460 kts | 167° |
| 2026-04-20 23:54 | 14.63905 | -61.68140 | 35009 ft | 460 kts | 167° |
| 2026-04-20 23:54 | 14.57935 | -61.65751 | 35008 ft | 460 kts | 167° |
| 2026-04-20 23:55 | 14.52007 | -61.63379 | 35009 ft | 460 kts | 167° |
| 2026-04-20 23:55 | 14.46041 | -61.60994 | 34992 ft | 460 kts | 167° |
| 2026-04-20 23:56 | 14.40070 | -61.58609 | 35007 ft | 460 kts | 167° |
| 2026-04-20 23:56 | 14.34100 | -61.56225 | 35000 ft | 460 kts | 167° |
| 2026-04-20 23:57 | 14.28168 | -61.53858 | 35002 ft | 460 kts | 167° |
| 2026-04-20 23:57 | 14.22195 | -61.51475 | 35003 ft | 460 kts | 167° |
| 2026-04-20 23:58 | 14.16223 | -61.49094 | 35001 ft | 460 kts | 167° |
| 2026-04-20 23:58 | 14.10253 | -61.46716 | 35000 ft | 459 kts | 166° |
| 2026-04-20 23:59 | 14.04313 | -61.44349 | 35001 ft | 457 kts | 166° |
| 2026-04-20 23:59 | 13.98418 | -61.42004 | 35001 ft | 457 kts | 166° |
| 2026-04-21 00:00 | 13.92488 | -61.39646 | 35002 ft | 457 kts | 166° |
| 2026-04-21 00:00 | 13.86555 | -61.37288 | 35003 ft | 457 kts | 166° |
| 2026-04-21 00:01 | 13.80619 | -61.34930 | 35001 ft | 457 kts | 166° |
| 2026-04-21 00:01 | 13.74744 | -61.32597 | 35002 ft | 454 kts | 166° |
| 2026-04-21 00:02 | 13.68859 | -61.30260 | 35001 ft | 453 kts | 166° |
| 2026-04-21 00:02 | 13.62976 | -61.27927 | 35003 ft | 453 kts | 166° |
| 2026-04-21 00:03 | 13.57097 | -61.25598 | 35004 ft | 453 kts | 166° |
| 2026-04-21 00:03 | 13.51213 | -61.23268 | 35004 ft | 453 kts | 166° |
| 2026-04-21 00:04 | 13.45371 | -61.20955 | 35001 ft | 453 kts | 166° |
| 2026-04-21 00:04 | 13.39479 | -61.18623 | 35005 ft | 454 kts | 166° |
| 2026-04-21 00:05 | 13.33583 | -61.16287 | 35003 ft | 454 kts | 166° |
| 2026-04-21 00:05 | 13.27687 | -61.13952 | 35000 ft | 454 kts | 166° |
| 2026-04-21 00:06 | 13.21831 | -61.11642 | 35001 ft | 454 kts | 166° |
| 2026-04-21 00:06 | 13.15934 | -61.09317 | 35000 ft | 454 kts | 166° |
| 2026-04-21 00:07 | 13.10034 | -61.06990 | 34987 ft | 454 kts | 165° |
| 2026-04-21 00:07 | 13.04143 | -61.04665 | 34986 ft | 454 kts | 165° |
| 2026-04-21 00:08 | 12.98294 | -61.02359 | 34987 ft | 453 kts | 165° |
| 2026-04-21 00:08 | 12.92413 | -61.00041 | 34988 ft | 452 kts | 165° |
| 2026-04-21 00:09 | 12.86538 | -60.97727 | 34987 ft | 452 kts | 165° |
| 2026-04-21 00:09 | 12.80660 | -60.95413 | 34989 ft | 453 kts | 165° |
| 2026-04-21 00:10 | 12.74821 | -60.93116 | 34988 ft | 452 kts | 165° |
| 2026-04-21 00:10 | 12.68946 | -60.90805 | 34986 ft | 452 kts | 165° |
| 2026-04-21 00:11 | 12.63067 | -60.88494 | 34987 ft | 453 kts | 165° |
| 2026-04-21 00:11 | 12.57190 | -60.86185 | 34984 ft | 453 kts | 165° |
| 2026-04-21 00:12 | 12.51310 | -60.83876 | 34985 ft | 453 kts | 165° |
| 2026-04-21 00:12 | 12.45470 | -60.81584 | 34983 ft | 452 kts | 165° |
| 2026-04-21 00:13 | 12.39595 | -60.79278 | 34984 ft | 452 kts | 165° |
| 2026-04-21 00:13 | 12.33720 | -60.76975 | 34983 ft | 452 kts | 165° |
| 2026-04-21 00:14 | 12.27850 | -60.74675 | 34984 ft | 452 kts | 165° |
| 2026-04-21 00:14 | 12.22022 | -60.72393 | 34985 ft | 451 kts | 165° |
| 2026-04-21 00:15 | 12.16158 | -60.70096 | 34983 ft | 451 kts | 165° |
| 2026-04-21 00:15 | 12.10290 | -60.67800 | 34978 ft | 451 kts | 164° |
| 2026-04-21 00:16 | 12.04431 | -60.65507 | 34976 ft | 451 kts | 164° |
| 2026-04-21 00:16 | 11.98569 | -60.63215 | 34985 ft | 451 kts | 164° |
| 2026-04-21 00:17 | 11.92748 | -60.60941 | 34989 ft | 451 kts | 164° |
| 2026-04-21 00:17 | 11.86886 | -60.58651 | 34977 ft | 451 kts | 164° |
| 2026-04-21 00:18 | 11.81025 | -60.56363 | 34983 ft | 451 kts | 164° |
| 2026-04-21 00:18 | 11.75166 | -60.54076 | 34987 ft | 450 kts | 163° |
| 2026-04-21 00:19 | 11.69358 | -60.51810 | 34982 ft | 450 kts | 163° |
| 2026-04-21 00:19 | 11.63510 | -60.49530 | 34987 ft | 450 kts | 164° |
| 2026-04-21 00:20 | 11.57662 | -60.47251 | 34985 ft | 450 kts | 164° |
| 2026-04-21 00:20 | 11.51814 | -60.44974 | 34983 ft | 449 kts | 163° |
| 2026-04-21 00:21 | 11.46000 | -60.42709 | 34977 ft | 446 kts | 163° |
| 2026-04-21 00:21 | 11.40248 | -60.40470 | 34985 ft | 445 kts | 163° |
| 2026-04-21 00:22 | 11.34465 | -60.38220 | 34977 ft | 445 kts | 163° |
| 2026-04-21 00:22 | 11.28687 | -60.35974 | 34979 ft | 445 kts | 163° |
| 2026-04-21 00:23 | 11.22909 | -60.33728 | 34986 ft | 445 kts | 163° |
| 2026-04-21 00:23 | 11.17168 | -60.31498 | 34980 ft | 445 kts | 163° |
| 2026-04-21 00:24 | 11.11389 | -60.29254 | 34976 ft | 444 kts | 163° |
| 2026-04-21 00:24 | 11.05618 | -60.27013 | 34983 ft | 444 kts | 163° |
| 2026-04-21 00:25 | 11.00823 | -60.25152 | 34976 ft | 444 kts | 163° |
| 2026-04-21 00:25 | 10.94149 | -60.22562 | 34972 ft | 440 kts | 163° |
| 2026-04-21 00:26 | 10.88431 | -60.20345 | 34975 ft | 439 kts | 163° |
| 2026-04-21 00:26 | 10.82717 | -60.18132 | 34981 ft | 439 kts | 163° |
| 2026-04-21 00:27 | 10.77007 | -60.15921 | 34972 ft | 438 kts | 162° |
| 2026-04-21 00:27 | 10.72283 | -60.14090 | 34976 ft | 437 kts | 162° |
| 2026-04-21 00:28 | 10.65682 | -60.11535 | 34978 ft | 437 kts | 163° |
| 2026-04-21 00:28 | 10.60002 | -60.09338 | 34975 ft | 437 kts | 163° |
| 2026-04-21 00:29 | 10.55283 | -60.07512 | 34982 ft | 436 kts | 163° |
| 2026-04-21 00:29 | 10.48686 | -60.04962 | 34976 ft | 436 kts | 163° |
| 2026-04-21 00:30 | 10.43016 | -60.02770 | 34972 ft | 436 kts | 162° |
| 2026-04-21 00:30 | 10.38310 | -60.00952 | 34969 ft | 435 kts | 162° |
| 2026-04-21 00:31 | 10.32657 | -59.98769 | 34974 ft | 435 kts | 162° |
| 2026-04-21 00:31 | 10.26998 | -59.96585 | 34977 ft | 435 kts | 162° |
| 2026-04-21 00:32 | 10.21343 | -59.94403 | 34976 ft | 435 kts | 162° |
| 2026-04-21 00:32 | 10.15683 | -59.92219 | 34974 ft | 435 kts | 162° |
| 2026-04-21 00:33 | 10.10073 | -59.90057 | 34978 ft | 434 kts | 162° |
| 2026-04-21 00:33 | 10.04444 | -59.87886 | 34983 ft | 432 kts | 162° |
| 2026-04-21 00:34 | 9.98843 | -59.85728 | 34973 ft | 430 kts | 162° |
| 2026-04-21 00:34 | 9.93251 | -59.83574 | 34974 ft | 430 kts | 162° |
| 2026-04-21 00:35 | 9.87662 | -59.81423 | 34977 ft | 430 kts | 162° |
| 2026-04-21 00:35 | 9.82107 | -59.79284 | 34977 ft | 430 kts | 162° |
| 2026-04-21 00:36 | 9.76520 | -59.77135 | 34985 ft | 429 kts | 161° |
| 2026-04-21 00:36 | 9.70943 | -59.74990 | 34986 ft | 428 kts | 161° |
| 2026-04-21 00:37 | 9.65408 | -59.72862 | 34983 ft | 428 kts | 162° |
| 2026-04-21 00:37 | 9.59839 | -59.70721 | 34983 ft | 428 kts | 161° |
| 2026-04-21 00:38 | 9.54265 | -59.68580 | 34980 ft | 428 kts | 162° |
| 2026-04-21 00:38 | 9.48691 | -59.66439 | 34979 ft | 428 kts | 161° |
| 2026-04-21 00:39 | 9.43117 | -59.64299 | 34981 ft | 428 kts | 161° |
| 2026-04-21 00:39 | 9.37580 | -59.62174 | 34981 ft | 428 kts | 162° |
| 2026-04-21 00:40 | 9.32007 | -59.60036 | 34987 ft | 428 kts | 162° |
| 2026-04-21 00:40 | 9.25528 | -59.57551 | 34988 ft | 429 kts | 162° |
| 2026-04-21 00:41 | 9.20854 | -59.55759 | 34981 ft | 429 kts | 162° |
| 2026-04-21 00:41 | 9.15312 | -59.53635 | 34979 ft | 429 kts | 162° |
| 2026-04-21 00:42 | 9.09735 | -59.51498 | 34981 ft | 429 kts | 161° |
| 2026-04-21 00:42 | 9.04157 | -59.49362 | 34985 ft | 428 kts | 161° |
| 2026-04-21 00:43 | 8.98583 | -59.47227 | 34982 ft | 428 kts | 161° |
| 2026-04-21 00:43 | 8.93207 | -59.44697 | 34979 ft | 432 kts | 150° |
| 2026-04-21 00:44 | 8.88656 | -59.40680 | 34983 ft | 439 kts | 136° |
| 2026-04-21 00:44 | 8.84715 | -59.35940 | 34979 ft | 441 kts | 133° |
| 2026-04-21 00:45 | 8.78967 | -59.28658 | 34982 ft | 441 kts | 133° |
| 2026-04-21 00:45 | 8.75154 | -59.23869 | 34980 ft | 439 kts | 133° |
| 2026-04-21 00:46 | 8.71311 | -59.19078 | 34980 ft | 439 kts | 133° |
| 2026-04-21 00:46 | 8.67460 | -59.14291 | 34982 ft | 439 kts | 133° |
| 2026-04-21 00:47 | 8.63608 | -59.09504 | 34980 ft | 439 kts | 133° |
| 2026-04-21 00:47 | 8.59788 | -59.04756 | 34983 ft | 439 kts | 133° |
| 2026-04-21 00:48 | 8.55939 | -58.99972 | 34988 ft | 438 kts | 133° |
| 2026-04-21 00:48 | 8.51934 | -58.95383 | 34981 ft | 432 kts | 141° |
| 2026-04-21 00:49 | 8.46974 | -58.92090 | 34980 ft | 425 kts | 158° |
| 2026-04-21 00:49 | 8.41437 | -58.90005 | 34977 ft | 425 kts | 162° |
| 2026-04-21 00:50 | 8.35851 | -58.88159 | 34979 ft | 426 kts | 163° |
| 2026-04-21 00:50 | 8.30218 | -58.86317 | 34983 ft | 425 kts | 163° |
| 2026-04-21 00:51 | 8.24593 | -58.84446 | 34982 ft | 425 kts | 162° |
| 2026-04-21 00:51 | 8.18975 | -58.82560 | 34982 ft | 426 kts | 162° |
| 2026-04-21 00:52 | 8.13356 | -58.80671 | 34980 ft | 426 kts | 162° |
| 2026-04-21 00:52 | 8.07765 | -58.78793 | 34981 ft | 427 kts | 162° |
| 2026-04-21 00:53 | 8.02136 | -58.76903 | 34984 ft | 426 kts | 162° |
| 2026-04-21 00:53 | 7.96508 | -58.75014 | 34980 ft | 426 kts | 162° |
| 2026-04-21 00:54 | 7.90877 | -58.73125 | 34983 ft | 426 kts | 162° |
| 2026-04-21 00:54 | 7.85297 | -58.71254 | 34983 ft | 425 kts | 162° |
| 2026-04-21 00:55 | 7.79678 | -58.69370 | 34659 ft | 424 kts | 162° |
| 2026-04-21 00:55 | 7.76878 | -58.68431 | 33980 ft | 425 kts | 162° |
| 2026-04-21 00:55 | 7.74055 | -58.67485 | 33017 ft | 430 kts | 162° |
| 2026-04-21 00:56 | 7.71195 | -58.66527 | 32000 ft | 436 kts | 162° |
| 2026-04-21 00:56 | 7.68292 | -58.65554 | 30964 ft | 444 kts | 163° |
| 2026-04-21 00:56 | 7.65376 | -58.64578 | 29930 ft | 451 kts | 163° |
| 2026-04-21 00:56 | 7.62379 | -58.63575 | 28724 ft | 458 kts | 163° |
| 2026-04-21 00:57 | 7.59344 | -58.62558 | 27712 ft | 461 kts | 163° |
| 2026-04-21 00:57 | 7.56307 | -58.61541 | 26941 ft | 458 kts | 163° |
| 2026-04-21 00:57 | 7.53286 | -58.60528 | 26126 ft | 458 kts | 164° |
| 2026-04-21 00:57 | 7.50270 | -58.59518 | 25390 ft | 456 kts | 164° |
| 2026-04-21 00:58 | 7.47262 | -58.58512 | 24676 ft | 454 kts | 164° |
| 2026-04-21 00:58 | 7.44267 | -58.57509 | 23984 ft | 453 kts | 164° |
| 2026-04-21 00:58 | 7.41287 | -58.56511 | 23315 ft | 450 kts | 164° |
| 2026-04-21 00:58 | 7.38330 | -58.55522 | 22621 ft | 446 kts | 164° |
| 2026-04-21 00:59 | 7.35444 | -58.54556 | 22033 ft | 440 kts | 164° |
| 2026-04-21 00:59 | 7.32556 | -58.53590 | 21434 ft | 435 kts | 164° |
| 2026-04-21 00:59 | 7.29697 | -58.52634 | 20828 ft | 431 kts | 164° |
| 2026-04-21 00:59 | 7.26866 | -58.51688 | 20235 ft | 427 kts | 164° |
| 2026-04-21 01:00 | 7.24054 | -58.50749 | 19626 ft | 424 kts | 163° |
| 2026-04-21 01:00 | 7.21263 | -58.49816 | 19092 ft | 420 kts | 163° |
| 2026-04-21 01:00 | 7.18498 | -58.48891 | 18514 ft | 417 kts | 163° |
| 2026-04-21 01:00 | 7.15758 | -58.47975 | 17865 ft | 415 kts | 163° |
| 2026-04-21 01:01 | 7.13079 | -58.47080 | 17471 ft | 406 kts | 163° |
| 2026-04-21 01:01 | 7.10414 | -58.46189 | 16846 ft | 402 kts | 163° |
| 2026-04-21 01:01 | 7.07763 | -58.45304 | 16312 ft | 397 kts | 162° |
| 2026-04-21 01:01 | 7.05154 | -58.44433 | 15725 ft | 394 kts | 162° |
| 2026-04-21 01:02 | 7.02565 | -58.43569 | 15212 ft | 389 kts | 162° |
| 2026-04-21 01:02 | 7.00016 | -58.42718 | 14677 ft | 384 kts | 162° |
| 2026-04-21 01:02 | 6.97476 | -58.41956 | 14167 ft | 379 kts | 168° |
| 2026-04-21 01:02 | 6.94848 | -58.41827 | 13599 ft | 377 kts | 182° |
| 2026-04-21 01:03 | 6.92276 | -58.42029 | 12919 ft | 376 kts | 184° |
| 2026-04-21 01:03 | 6.89676 | -58.42274 | 12244 ft | 375 kts | 184° |
| 2026-04-21 01:03 | 6.87085 | -58.42517 | 11646 ft | 372 kts | 184° |
| 2026-04-21 01:03 | 6.84516 | -58.42753 | 10959 ft | 372 kts | 184° |
| 2026-04-21 01:04 | 6.81955 | -58.42985 | 10450 ft | 367 kts | 184° |
| 2026-04-21 01:04 | 6.79448 | -58.43210 | 10217 ft | 354 kts | 184° |
| 2026-04-21 01:04 | 6.77049 | -58.43424 | 10126 ft | 338 kts | 184° |
| 2026-04-21 01:04 | 6.74760 | -58.43628 | 10008 ft | 324 kts | 184° |
| 2026-04-21 01:05 | 6.72557 | -58.43824 | 9840 ft | 313 kts | 184° |
| 2026-04-21 01:05 | 6.70450 | -58.44011 | 9640 ft | 304 kts | 183° |
| 2026-04-21 01:05 | 6.68352 | -58.44196 | 9240 ft | 302 kts | 183° |
| 2026-04-21 01:05 | 6.66263 | -58.44380 | 8872 ft | 300 kts | 184° |
| 2026-04-21 01:06 | 6.64186 | -58.44563 | 8470 ft | 299 kts | 183° |
| 2026-04-21 01:06 | 6.62119 | -58.44746 | 8107 ft | 297 kts | 183° |
| 2026-04-21 01:06 | 6.60066 | -58.44927 | 7754 ft | 295 kts | 184° |
| 2026-04-21 01:06 | 6.58026 | -58.45108 | 7382 ft | 294 kts | 184° |
| 2026-04-21 01:07 | 6.55994 | -58.45287 | 7009 ft | 292 kts | 184° |
| 2026-04-21 01:07 | 6.53972 | -58.45466 | 6657 ft | 291 kts | 184° |
| 2026-04-21 01:07 | 6.51972 | -58.45643 | 6419 ft | 284 kts | 184° |
| 2026-04-21 01:07 | 6.50074 | -58.45811 | 6235 ft | 272 kts | 184° |
| 2026-04-21 01:08 | 6.48232 | -58.45974 | 6080 ft | 261 kts | 183° |
| 2026-04-21 01:08 | 6.46454 | -58.46132 | 5845 ft | 253 kts | 184° |
| 2026-04-21 01:08 | 6.44709 | -58.46263 | 5530 ft | 250 kts | 178° |
| 2026-04-21 01:08 | 6.43020 | -58.45980 | 5213 ft | 246 kts | 155° |
| 2026-04-21 01:09 | 6.41613 | -58.45050 | 4947 ft | 241 kts | 136° |
| 2026-04-21 01:09 | 6.40410 | -58.43882 | 4700 ft | 239 kts | 133° |
| 2026-04-21 01:09 | 6.39243 | -58.42694 | 4451 ft | 238 kts | 132° |
| 2026-04-21 01:09 | 6.38209 | -58.41440 | 4208 ft | 235 kts | 118° |
| 2026-04-21 01:10 | 6.37637 | -58.39930 | 3943 ft | 231 kts | 97° |
| 2026-04-21 01:10 | 6.37707 | -58.38344 | 3719 ft | 225 kts | 74° |
| 2026-04-21 01:10 | 6.38338 | -58.36987 | 3510 ft | 206 kts | 55° |
| 2026-04-21 01:10 | 6.39262 | -58.35924 | 2972 ft | 201 kts | 47° |
| 2026-04-21 01:11 | 6.40256 | -58.34940 | 2399 ft | 199 kts | 46° |
| 2026-04-21 01:11 | 6.41224 | -58.33932 | 2076 ft | 200 kts | 45° |
| 2026-04-21 01:11 | 6.42230 | -58.32965 | 1824 ft | 200 kts | 44° |
| 2026-04-21 01:11 | 6.43237 | -58.32001 | 1581 ft | 199 kts | 44° |
| 2026-04-21 01:12 | 6.44239 | -58.31042 | 1350 ft | 197 kts | 44° |
| 2026-04-21 01:12 | 6.45197 | -58.30128 | 1074 ft | 182 kts | 44° |
| 2026-04-21 01:12 | 6.46073 | -58.29292 | 870 ft | 164 kts | 43° |
| 2026-04-21 01:12 | 6.46850 | -58.28545 | 615 ft | 147 kts | 46° |
| 2026-04-21 01:13 | 6.47521 | -58.27820 | 538 ft | 145 kts | 47° |
| 2026-04-21 01:13 | 6.48237 | -58.27042 | 319 ft | 148 kts | 49° |
| 2026-04-21 01:13 | 6.48938 | -58.26331 | 143 ft | 137 kts | 46° |
| 2026-04-21 01:13 | 6.49530 | -58.25727 | 110 ft | 96 kts | 45° |
| 2026-04-21 01:14 | 6.49821 | -58.25441 | 109 ft | 33 kts | 45° |
| 2026-04-21 01:14 | 6.49952 | -58.25307 | 110 ft | 25 kts | 45° |
| 2026-04-21 01:14 | 6.50022 | -58.25270 | 110 ft | 4 kts | 343° |
| 2026-04-21 01:14 | 6.50044 | -58.25281 | 109 ft | 5 kts | 328° |
| 2026-04-21 01:15 | 6.50092 | -58.25317 | 107 ft | 9 kts | 312° |
| 2026-04-21 01:15 | 6.50133 | -58.25368 | 106 ft | 10 kts | 309° |
| 2026-04-21 01:15 | 6.50176 | -58.25416 | 105 ft | 8 kts | 312° |
| 2026-04-21 01:15 | 6.50210 | -58.25454 | 106 ft | 0 kts | 312° |